createdAt,value
2022-12-12T00:00:40.095Z,67.71
2022-12-12T00:03:07.893Z,66.81
2022-12-12T00:05:35.339Z,66.88
2022-12-12T00:08:02.788Z,67.04
2022-12-12T00:10:30.456Z,65.55
2022-12-12T00:12:57.748Z,64.04
2022-12-12T00:15:25.082Z,64.48
2022-12-12T00:17:52.684Z,63.72
2022-12-12T00:20:20.240Z,64.76
2022-12-12T00:22:47.564Z,64.29
2022-12-12T00:25:15.492Z,64.80
2022-12-12T00:27:42.970Z,64.36
2022-12-12T00:30:10.596Z,64.06
2022-12-12T00:32:38.268Z,63.63
2022-12-12T00:35:06.248Z,64.05
2022-12-12T00:37:33.641Z,64.32
2022-12-12T00:40:01.262Z,63.65
2022-12-12T00:42:28.598Z,63.15
2022-12-12T00:44:55.932Z,64.06
2022-12-12T00:47:23.524Z,63.91
2022-12-12T00:49:51.053Z,63.63
2022-12-12T00:52:18.386Z,63.92
2022-12-12T00:54:45.975Z,63.69
2022-12-12T00:57:13.262Z,63.29
2022-12-12T00:59:40.631Z,63.55
2022-12-12T01:02:08.403Z,63.64
2022-12-12T01:04:35.810Z,63.80
2022-12-12T01:07:03.129Z,63.95
2022-12-12T01:09:30.814Z,63.85
2022-12-12T01:11:58.119Z,64.92
2022-12-12T01:14:25.431Z,62.59
2022-12-12T01:16:52.978Z,63.69
2022-12-12T01:19:20.311Z,63.46
2022-12-12T01:21:47.680Z,62.52
2022-12-12T01:24:15.325Z,62.70
2022-12-12T01:26:42.642Z,61.72
2022-12-12T01:29:10.147Z,62.95
2022-12-12T01:31:37.830Z,62.30
2022-12-12T01:34:05.228Z,62.16
2022-12-12T01:36:32.757Z,61.67
2022-12-12T01:39:00.691Z,61.06
2022-12-12T01:41:28.043Z,60.70
2022-12-12T01:43:55.558Z,60.33
2022-12-12T01:46:37.791Z,60.62
2022-12-12T01:49:37.730Z,62.38
2022-12-12T01:52:11.555Z,63.77
2022-12-12T01:54:41.281Z,63.17
2022-12-12T01:57:13.778Z,62.84
2022-12-12T01:59:41.404Z,63.53
2022-12-12T02:02:09.955Z,63.28
2022-12-12T02:04:37.748Z,63.92
2022-12-12T02:07:05.121Z,63.85
2022-12-12T02:09:33.791Z,63.50
2022-12-12T02:12:01.424Z,62.32
2022-12-12T02:14:31.509Z,63.47
2022-12-12T02:17:09.278Z,62.65
2022-12-12T02:20:04.992Z,62.12
2022-12-12T02:23:08.910Z,61.98
2022-12-12T02:25:58.224Z,61.65
2022-12-12T02:28:37.245Z,61.19
2022-12-12T02:31:10.685Z,60.48
2022-12-12T02:34:09.230Z,61.10
2022-12-12T02:36:45.972Z,61.63
2022-12-12T02:39:54.584Z,61.63
2022-12-12T02:42:30.008Z,60.60
2022-12-12T02:45:08.042Z,60.15
2022-12-12T02:47:51.951Z,60.43
2022-12-12T02:50:24.779Z,60.26
2022-12-12T02:52:52.427Z,61.37
2022-12-12T02:55:20.121Z,60.53
2022-12-12T02:57:48.327Z,61.08
2022-12-12T03:00:18.071Z,61.54
2022-12-12T03:03:16.464Z,61.41
2022-12-12T03:06:40.667Z,61.13
2022-12-12T03:09:26.363Z,60.63
2022-12-12T03:12:08.180Z,61.70
2022-12-12T03:14:52.188Z,61.54
2022-12-12T03:17:30.244Z,61.73
2022-12-12T03:20:04.289Z,62.46
2022-12-12T03:22:39.138Z,62.54
2022-12-12T03:25:28.326Z,62.42
2022-12-12T03:28:05.162Z,60.82
2022-12-12T03:30:35.401Z,61.33
2022-12-12T03:33:19.112Z,62.05
2022-12-12T03:35:56.999Z,61.91
2022-12-12T03:38:29.664Z,61.38
2022-12-12T03:41:01.694Z,61.00
2022-12-12T03:43:35.505Z,61.22
2022-12-12T03:46:12.912Z,61.76
2022-12-12T03:48:44.007Z,61.35
2022-12-12T03:51:36.218Z,60.28
2022-12-12T03:54:09.358Z,59.93
2022-12-12T03:56:51.026Z,59.27
2022-12-12T03:59:27.150Z,59.31
2022-12-12T04:02:04.100Z,58.71
2022-12-12T04:04:37.575Z,58.24
2022-12-12T04:07:16.716Z,58.01
2022-12-12T04:10:02.771Z,57.34
2022-12-12T04:12:56.182Z,56.94
2022-12-12T04:15:46.773Z,55.81
2022-12-12T04:18:18.629Z,56.15
2022-12-12T04:21:23.435Z,55.19
2022-12-12T04:24:13.882Z,56.35
2022-12-12T04:26:46.093Z,55.80
2022-12-12T04:29:19.379Z,55.82
2022-12-12T04:31:53.178Z,55.82
2022-12-12T04:34:44.299Z,55.50
2022-12-12T04:37:15.247Z,54.49
2022-12-12T04:39:43.765Z,53.55
2022-12-12T04:42:15.085Z,54.87
2022-12-12T04:44:43.742Z,54.68
2022-12-12T04:47:11.751Z,53.88
2022-12-12T04:49:40.160Z,53.62
2022-12-12T04:52:09.806Z,53.59
2022-12-12T04:54:42.990Z,53.45
2022-12-12T04:57:16.104Z,53.33
2022-12-12T04:59:43.922Z,53.38
2022-12-12T05:02:39.445Z,52.93
2022-12-12T05:05:11.387Z,52.53
2022-12-12T05:07:58.062Z,53.15
2022-12-12T05:10:25.661Z,53.76
2022-12-12T05:13:00.846Z,53.45
2022-12-12T05:15:28.923Z,53.75
2022-12-12T05:18:08.685Z,53.75
2022-12-12T05:20:36.054Z,53.35
2022-12-12T05:23:04.076Z,54.04
2022-12-12T05:25:31.508Z,54.19
2022-12-12T05:27:58.875Z,54.55
2022-12-12T05:30:26.506Z,55.50
2022-12-12T05:32:54.269Z,59.72
2022-12-12T05:35:22.074Z,56.19
2022-12-12T05:37:51.936Z,54.57
2022-12-12T05:40:20.915Z,54.31
2022-12-12T05:42:48.275Z,54.12
2022-12-12T05:45:16.041Z,54.84
2022-12-12T05:47:43.415Z,55.45
2022-12-12T05:50:11.022Z,54.52
2022-12-12T05:52:38.642Z,54.64
2022-12-12T05:55:06.895Z,55.42
2022-12-12T05:57:34.229Z,54.75
2022-12-12T06:00:02.055Z,54.76
2022-12-12T06:02:32.602Z,53.86
2022-12-12T06:05:00.307Z,54.38
2022-12-12T06:07:27.611Z,53.66
2022-12-12T06:09:55.845Z,54.02
2022-12-12T06:12:23.579Z,54.92
2022-12-12T06:14:50.981Z,54.31
2022-12-12T06:17:18.284Z,54.75
2022-12-12T06:19:45.902Z,53.45
2022-12-12T06:22:13.253Z,53.93
2022-12-12T06:24:41.335Z,54.43
2022-12-12T06:27:08.983Z,54.34
2022-12-12T06:29:36.326Z,53.88
2022-12-12T06:32:03.906Z,54.28
2022-12-12T06:34:31.484Z,53.70
2022-12-12T06:36:58.926Z,54.05
2022-12-12T06:39:26.267Z,54.14
2022-12-12T06:41:53.843Z,54.05
2022-12-12T06:44:21.151Z,53.78
2022-12-12T06:46:48.492Z,53.87
2022-12-12T06:49:16.264Z,53.33
2022-12-12T06:51:46.327Z,53.54
2022-12-12T06:54:16.158Z,53.52
2022-12-12T06:56:48.161Z,53.64
2022-12-12T06:59:16.501Z,53.45
2022-12-12T07:01:44.502Z,53.88
2022-12-12T07:04:12.727Z,53.86
2022-12-12T07:06:40.362Z,54.00
2022-12-12T07:09:08.306Z,53.10
2022-12-12T07:11:35.641Z,54.18
2022-12-12T07:14:05.585Z,54.10
2022-12-12T07:16:33.787Z,53.85
2022-12-12T07:19:01.139Z,54.21
2022-12-12T07:21:28.504Z,54.61
2022-12-12T07:23:57.016Z,54.71
2022-12-12T07:26:24.862Z,54.30
2022-12-12T07:28:52.367Z,53.84
2022-12-12T07:31:22.247Z,53.61
2022-12-12T07:33:49.692Z,53.33
2022-12-12T07:36:17.428Z,53.04
2022-12-12T07:38:45.083Z,55.46
2022-12-12T07:41:15.253Z,52.85
2022-12-12T07:43:44.707Z,52.76
2022-12-12T07:46:18.308Z,52.16
2022-12-12T07:48:45.997Z,52.54
2022-12-12T07:51:14.361Z,53.35
2022-12-12T07:53:41.865Z,52.27
2022-12-12T07:56:10.535Z,52.25
2022-12-12T07:58:38.396Z,58.71
2022-12-12T08:01:20.198Z,54.76
2022-12-12T08:03:48.858Z,53.89
2022-12-12T08:06:18.152Z,53.35
2022-12-12T08:08:46.385Z,53.73
2022-12-12T08:11:16.333Z,53.21
2022-12-12T08:13:44.089Z,54.00
2022-12-12T08:16:20.711Z,53.16
2022-12-12T08:18:49.365Z,54.21
2022-12-12T08:21:23.203Z,53.98
2022-12-12T08:24:00.272Z,53.31
2022-12-12T08:26:28.438Z,53.68
2022-12-12T08:28:56.689Z,53.79
2022-12-12T08:31:24.860Z,53.40
2022-12-12T08:33:53.156Z,53.46
2022-12-12T08:36:31.688Z,53.70
2022-12-12T08:39:04.124Z,52.83
2022-12-12T08:41:31.766Z,53.08
2022-12-12T08:43:59.263Z,52.46
2022-12-12T08:46:26.798Z,52.02
2022-12-12T08:48:54.484Z,52.44
2022-12-12T08:51:22.544Z,52.39
2022-12-12T08:53:51.576Z,51.48
2022-12-12T08:56:20.750Z,51.28
2022-12-12T08:58:48.433Z,51.45
2022-12-12T09:01:18.327Z,51.91
2022-12-12T09:03:46.377Z,51.20
2022-12-12T09:06:14.483Z,51.19
2022-12-12T09:08:41.932Z,51.60
2022-12-12T09:11:10.777Z,51.55
2022-12-12T09:13:38.306Z,50.98
2022-12-12T09:16:07.726Z,50.90
2022-12-12T09:18:36.043Z,51.79
2022-12-12T09:21:03.556Z,51.21
2022-12-12T09:23:31.270Z,51.13
2022-12-12T09:25:58.971Z,51.73
2022-12-12T09:28:26.912Z,51.28
2022-12-12T09:30:54.290Z,51.82
2022-12-12T09:33:21.949Z,51.75
2022-12-12T09:35:57.499Z,50.94
2022-12-12T09:38:25.289Z,51.61
2022-12-12T09:41:09.307Z,51.42
2022-12-12T09:44:01.311Z,51.73
2022-12-12T09:46:39.472Z,51.34
2022-12-12T09:49:15.853Z,51.75
2022-12-12T09:51:46.424Z,52.21
2022-12-12T09:54:19.107Z,51.67
2022-12-12T09:57:02.768Z,52.66
2022-12-12T09:59:39.235Z,53.43
2022-12-12T10:02:20.315Z,52.79
2022-12-12T10:05:00.923Z,52.21
2022-12-12T10:07:43.349Z,51.89
2022-12-12T10:10:11.087Z,51.92
2022-12-12T10:12:38.604Z,51.56
2022-12-12T10:15:08.999Z,52.07
2022-12-12T10:17:41.083Z,51.96
2022-12-12T10:20:16.924Z,52.81
2022-12-12T10:23:07.510Z,52.04
2022-12-12T10:25:39.695Z,52.16
2022-12-12T10:28:11.979Z,51.27
2022-12-12T10:31:01.960Z,52.04
2022-12-12T10:33:36.769Z,51.34
2022-12-12T10:36:25.691Z,50.96
2022-12-12T10:39:13.306Z,49.38
2022-12-12T10:41:51.567Z,50.05
2022-12-12T10:45:02.557Z,50.32
2022-12-12T10:47:30.552Z,49.24
2022-12-12T10:50:13.331Z,48.90
2022-12-12T10:52:41.024Z,48.79
2022-12-12T10:55:42.872Z,47.64
2022-12-12T10:58:10.191Z,49.63
2022-12-12T11:00:40.472Z,46.25
2022-12-12T11:03:32.508Z,47.14
2022-12-12T11:06:04.736Z,47.62
2022-12-12T11:08:34.795Z,48.07
2022-12-12T11:11:14.076Z,47.58
2022-12-12T11:13:49.219Z,48.33
2022-12-12T11:16:26.849Z,49.34
2022-12-12T11:19:05.252Z,49.07
2022-12-12T11:21:35.808Z,49.14
2022-12-12T11:24:08.151Z,48.52
2022-12-12T11:26:42.036Z,49.09
2022-12-12T11:29:27.580Z,49.70
2022-12-12T11:31:55.427Z,49.73
2022-12-12T11:34:25.259Z,50.21
2022-12-12T11:36:53.343Z,50.53
2022-12-12T11:39:39.910Z,50.03
2022-12-12T11:42:13.272Z,50.62
2022-12-12T11:44:43.452Z,50.14
2022-12-12T11:47:28.121Z,50.85
2022-12-12T11:49:59.965Z,52.66
2022-12-12T11:52:30.909Z,52.41
2022-12-12T11:54:59.346Z,51.98
2022-12-12T11:58:04.075Z,53.38
2022-12-12T12:00:41.930Z,53.17
2022-12-12T12:03:29.789Z,56.64
2022-12-12T12:05:57.168Z,53.66
2022-12-12T12:08:40.072Z,59.39
2022-12-12T12:11:41.768Z,57.23
2022-12-12T12:14:17.477Z,53.66
2022-12-12T12:17:05.518Z,54.14
2022-12-12T12:19:57.437Z,55.49
2022-12-12T12:22:33.007Z,56.32
2022-12-12T12:25:15.434Z,56.06
2022-12-12T12:28:02.203Z,55.61
2022-12-12T12:31:04.726Z,55.56
2022-12-12T12:34:00.653Z,56.36
2022-12-12T12:36:33.891Z,56.84
2022-12-12T12:39:13.165Z,56.77
2022-12-12T12:42:31.836Z,56.30
2022-12-12T12:45:23.005Z,58.46
2022-12-12T12:48:26.318Z,58.00
2022-12-12T12:51:02.304Z,57.56
2022-12-12T12:53:53.284Z,57.55
2022-12-12T12:56:26.541Z,56.76
2022-12-12T12:58:58.508Z,56.52
2022-12-12T13:01:35.177Z,56.36
2022-12-12T13:04:17.090Z,56.46
2022-12-12T13:06:58.764Z,55.48
2022-12-12T13:09:37.546Z,55.25
2022-12-12T13:12:12.852Z,55.98
2022-12-12T13:14:49.554Z,55.14
2022-12-12T13:17:26.917Z,55.30
2022-12-12T13:19:56.863Z,54.85
2022-12-12T13:22:33.130Z,54.77
2022-12-12T13:25:15.108Z,54.25
2022-12-12T13:27:46.050Z,53.07
2022-12-12T13:30:26.106Z,53.44
2022-12-12T13:33:15.826Z,53.21
2022-12-12T13:35:46.131Z,54.13
2022-12-12T13:38:26.631Z,53.82
2022-12-12T13:40:59.545Z,54.32
2022-12-12T13:43:39.144Z,53.51
2022-12-12T13:46:33.903Z,53.19
2022-12-12T13:49:07.316Z,53.04
2022-12-12T13:51:43.193Z,54.00
2022-12-12T13:54:13.743Z,52.82
2022-12-12T13:56:57.068Z,53.85
2022-12-12T13:59:26.988Z,53.03
2022-12-12T14:02:36.366Z,52.97
2022-12-12T14:05:07.043Z,53.22
2022-12-12T14:07:34.982Z,53.57
2022-12-12T14:10:17.076Z,53.79
2022-12-12T14:12:44.905Z,54.04
2022-12-12T14:15:21.640Z,53.39
2022-12-12T14:17:56.218Z,53.51
2022-12-12T14:20:27.547Z,53.57
2022-12-12T14:22:55.084Z,53.76
2022-12-12T14:25:39.258Z,54.12
2022-12-12T14:28:33.693Z,54.53
2022-12-12T14:31:14.688Z,54.50
2022-12-12T14:33:48.203Z,54.12
2022-12-12T14:36:50.358Z,53.91
2022-12-12T14:39:36.184Z,54.26
2022-12-12T14:42:06.209Z,54.76
2022-12-12T14:44:37.894Z,54.68
2022-12-12T14:47:07.348Z,55.11
2022-12-12T14:49:35.112Z,54.11
2022-12-12T14:52:02.666Z,54.75
2022-12-12T14:54:30.883Z,55.36
2022-12-12T14:56:59.227Z,53.93
2022-12-12T14:59:29.234Z,54.00
2022-12-12T15:02:01.158Z,55.02
2022-12-12T15:04:35.203Z,53.09
2022-12-12T15:07:04.761Z,52.75
2022-12-12T15:09:39.470Z,52.73
2022-12-12T15:12:09.863Z,53.21
2022-12-12T15:14:39.408Z,53.73
2022-12-12T15:17:08.521Z,52.96
2022-12-12T15:19:44.689Z,53.40
2022-12-12T15:22:21.821Z,53.58
2022-12-12T15:24:49.955Z,53.39
2022-12-12T15:27:41.975Z,53.68
2022-12-12T15:30:24.088Z,54.29
2022-12-12T15:32:51.755Z,53.80
2022-12-12T15:35:21.735Z,53.55
2022-12-12T15:38:02.864Z,53.14
2022-12-12T15:40:35.162Z,53.53
2022-12-12T15:43:05.530Z,53.56
2022-12-12T15:45:45.191Z,53.48
2022-12-12T15:48:16.628Z,53.32
2022-12-12T15:50:44.082Z,54.13
2022-12-12T15:53:20.378Z,54.61
2022-12-12T15:56:23.390Z,56.50
2022-12-12T15:59:14.192Z,55.32
2022-12-12T16:01:42.035Z,54.25
2022-12-12T16:04:09.699Z,54.72
2022-12-12T16:06:42.385Z,54.60
2022-12-12T16:09:17.783Z,55.46
2022-12-12T16:11:55.438Z,55.53
2022-12-12T16:14:40.872Z,54.63
2022-12-12T16:17:18.235Z,54.94
2022-12-12T16:19:57.859Z,54.75
2022-12-12T16:22:32.193Z,55.47
2022-12-12T16:25:18.161Z,55.71
2022-12-12T16:27:47.791Z,55.83
2022-12-12T16:30:16.308Z,55.78
2022-12-12T16:32:44.157Z,56.83
2022-12-12T16:35:16.597Z,56.37
2022-12-12T16:37:45.516Z,56.07
2022-12-12T16:40:15.536Z,56.00
2022-12-12T16:42:45.863Z,55.26
2022-12-12T16:45:13.436Z,56.35
2022-12-12T16:47:40.782Z,55.35
2022-12-12T16:50:08.298Z,54.92
2022-12-12T16:52:36.226Z,54.36
2022-12-12T16:55:12.106Z,54.23
2022-12-12T16:57:40.716Z,53.97
2022-12-12T17:00:09.088Z,53.51
2022-12-12T17:02:36.720Z,53.90
2022-12-12T17:05:06.491Z,52.39
2022-12-12T17:07:33.824Z,52.60
2022-12-12T17:10:01.169Z,52.08
2022-12-12T17:12:28.761Z,51.65
2022-12-12T17:14:56.302Z,52.28
2022-12-12T17:17:23.615Z,52.53
2022-12-12T17:19:51.210Z,51.84
2022-12-12T17:22:18.504Z,52.49
2022-12-12T17:24:45.881Z,52.50
2022-12-12T17:27:13.492Z,52.35
2022-12-12T17:29:40.838Z,52.92
2022-12-12T17:32:08.395Z,53.73
2022-12-12T17:34:36.100Z,52.62
2022-12-12T17:37:03.475Z,52.26
2022-12-12T17:39:30.867Z,52.87
2022-12-12T17:41:58.442Z,53.10
2022-12-12T17:44:25.812Z,53.14
2022-12-12T17:46:53.326Z,53.34
2022-12-12T17:49:20.984Z,53.15
2022-12-12T17:51:48.344Z,54.21
2022-12-12T17:54:15.695Z,53.48
2022-12-12T17:56:43.317Z,52.64
2022-12-12T17:59:10.668Z,52.76
2022-12-12T18:01:38.024Z,52.83
2022-12-12T18:04:05.842Z,52.87
2022-12-12T18:06:34.998Z,52.79
2022-12-12T18:09:03.524Z,52.95
2022-12-12T18:11:33.555Z,53.40
2022-12-12T18:14:03.017Z,61.26
2022-12-12T18:16:32.216Z,54.21
2022-12-12T18:19:00.167Z,52.56
2022-12-12T18:24:18.948Z,52.43
2022-12-12T18:26:47.685Z,52.31
2022-12-12T18:29:15.050Z,52.14
2022-12-12T18:31:46.051Z,51.81
2022-12-12T18:34:14.171Z,52.14
2022-12-12T18:36:41.816Z,52.06
2022-12-12T18:39:10.674Z,51.57
2022-12-12T18:41:38.226Z,51.81
2022-12-12T18:44:07.408Z,51.78
2022-12-12T18:46:42.423Z,52.48
2022-12-12T18:49:13.805Z,52.52
2022-12-12T18:51:42.157Z,52.56
2022-12-12T18:54:15.048Z,52.43
2022-12-12T18:56:46.959Z,52.19
2022-12-12T18:59:15.412Z,51.84
2022-12-12T19:01:43.911Z,52.17
2022-12-12T19:04:15.099Z,52.28
2022-12-12T19:06:45.318Z,53.42
2022-12-12T19:09:17.126Z,54.34
2022-12-12T19:11:45.082Z,55.17
2022-12-12T19:14:14.780Z,55.39
2022-12-12T19:16:43.114Z,55.74
2022-12-12T19:19:12.076Z,55.84
2022-12-12T19:21:41.292Z,55.96
2022-12-12T19:24:10.498Z,56.00
2022-12-12T19:26:40.466Z,56.98
2022-12-12T19:29:11.605Z,57.07
2022-12-12T19:31:39.484Z,56.47
2022-12-12T19:34:08.673Z,57.01
2022-12-12T19:36:36.118Z,57.25
2022-12-12T19:39:05.100Z,56.58
2022-12-12T19:41:32.747Z,56.95
2022-12-12T19:44:05.550Z,56.61
2022-12-12T19:46:33.377Z,58.00
2022-12-12T19:49:02.442Z,57.87
2022-12-12T19:51:32.781Z,58.04
2022-12-12T19:54:00.586Z,59.48
2022-12-12T19:56:33.704Z,59.06
2022-12-12T19:59:01.880Z,58.37
2022-12-12T20:01:31.813Z,57.73
2022-12-12T20:04:02.893Z,57.20
2022-12-12T20:06:30.343Z,57.06
2022-12-12T20:08:59.058Z,57.85
2022-12-12T20:11:26.778Z,57.62
2022-12-12T20:13:56.115Z,58.22
2022-12-12T20:16:26.330Z,58.03
2022-12-12T20:18:54.699Z,58.32
2022-12-12T20:21:59.267Z,58.52
2022-12-12T20:24:14.810Z,57.95
2022-12-12T20:26:42.580Z,57.36
2022-12-12T20:29:11.942Z,57.56
2022-12-12T20:31:43.650Z,57.96
2022-12-12T20:34:13.616Z,57.97
2022-12-12T20:36:41.637Z,57.59
2022-12-12T20:39:13.671Z,58.24
2022-12-12T20:41:41.446Z,59.49
2022-12-12T20:44:10.236Z,58.89
2022-12-12T20:46:39.191Z,58.78
2022-12-12T20:49:11.772Z,58.31
2022-12-12T20:51:55.439Z,58.03
2022-12-12T20:54:25.599Z,58.36
2022-12-12T20:56:53.924Z,59.32
2022-12-12T20:59:21.402Z,59.09
2022-12-12T21:01:49.114Z,59.14
2022-12-12T21:04:16.591Z,57.98
2022-12-12T21:06:48.104Z,58.83
2022-12-12T21:09:23.245Z,58.53
2022-12-12T21:11:56.880Z,57.78
2022-12-12T21:14:24.927Z,59.44
2022-12-12T21:16:52.299Z,60.09
2022-12-12T21:19:20.949Z,60.07
2022-12-12T21:21:48.801Z,59.75
2022-12-12T21:24:16.952Z,59.66
2022-12-12T21:26:45.258Z,59.96
2022-12-12T21:29:13.147Z,59.22
2022-12-12T21:31:51.108Z,59.83
2022-12-12T21:34:21.267Z,60.62
2022-12-12T21:36:53.995Z,61.27
2022-12-12T21:39:23.256Z,61.34
2022-12-12T21:41:51.498Z,60.74
2022-12-12T21:44:20.073Z,61.16
2022-12-12T21:46:48.108Z,60.79
2022-12-12T21:49:27.828Z,60.90
2022-12-12T21:51:57.816Z,60.10
2022-12-12T21:54:26.347Z,60.31
2022-12-12T21:56:55.343Z,60.63
2022-12-12T21:59:23.447Z,60.55
2022-12-12T22:01:52.912Z,60.55
2022-12-12T22:04:20.568Z,60.65
2022-12-12T22:06:47.906Z,61.86
2022-12-12T22:09:15.297Z,62.38
2022-12-12T22:11:48.483Z,62.71
2022-12-12T22:14:17.876Z,62.72
2022-12-12T22:16:45.452Z,63.38
2022-12-12T22:19:14.155Z,63.28
2022-12-12T22:21:44.240Z,63.19
2022-12-12T22:24:11.933Z,63.51
2022-12-12T22:26:41.474Z,63.91
2022-12-12T22:29:12.562Z,63.64
2022-12-12T22:31:41.113Z,63.03
2022-12-12T22:34:12.983Z,63.38
2022-12-12T22:36:40.622Z,63.57
2022-12-12T22:39:12.864Z,63.29
2022-12-12T22:41:40.244Z,62.61
2022-12-12T22:44:08.024Z,62.50
2022-12-12T22:46:40.692Z,62.69
2022-12-12T22:49:13.293Z,64.72
2022-12-12T22:51:41.045Z,64.11
2022-12-12T22:54:08.488Z,64.60
2022-12-12T22:56:37.531Z,64.04
2022-12-12T22:59:05.854Z,64.03
2022-12-12T23:01:33.544Z,64.26
2022-12-12T23:04:01.249Z,64.13
2022-12-12T23:06:30.649Z,63.41
2022-12-12T23:09:06.958Z,63.42
2022-12-12T23:11:35.652Z,62.78
2022-12-12T23:14:06.566Z,61.92
2022-12-12T23:16:35.500Z,62.25
2022-12-12T23:19:04.649Z,62.89
2022-12-12T23:21:32.454Z,61.37
2022-12-12T23:23:59.891Z,61.29
2022-12-12T23:26:30.146Z,62.08
2022-12-12T23:28:59.017Z,61.66
2022-12-12T23:31:29.019Z,62.51
2022-12-12T23:33:58.919Z,62.36
2022-12-12T23:36:27.148Z,61.32
2022-12-12T23:38:59.083Z,60.62
2022-12-12T23:41:27.346Z,60.33
2022-12-12T23:43:55.925Z,61.50
2022-12-12T23:46:33.584Z,61.14
2022-12-12T23:49:11.684Z,60.44
2022-12-12T23:51:46.683Z,61.66
2022-12-12T23:54:20.262Z,61.87
2022-12-12T23:56:48.292Z,62.11
2022-12-12T23:59:18.153Z,61.31
